createdAt,value
2022-08-07T00:00:07.365Z,12.21
2022-08-07T00:05:06.469Z,12.21
2022-08-07T00:10:25.552Z,12.12
2022-08-07T00:15:07.193Z,12.05
2022-08-07T00:20:06.157Z,12.01
2022-08-07T00:25:07.001Z,11.91
2022-08-07T00:30:06.023Z,11.88
2022-08-07T00:35:07.088Z,11.76
2022-08-07T00:40:06.006Z,11.75
2022-08-07T00:45:06.786Z,11.72
2022-08-07T00:50:19.185Z,11.67
2022-08-07T00:55:10.377Z,11.60
2022-08-07T01:00:05.699Z,11.54
2022-08-07T01:05:05.639Z,11.44
2022-08-07T01:10:11.073Z,11.44
2022-08-07T01:15:05.599Z,11.40
2022-08-07T01:20:05.486Z,11.36
2022-08-07T01:25:53.575Z,11.29
2022-08-07T01:30:06.435Z,11.27
2022-08-07T01:35:05.465Z,11.18
2022-08-07T01:40:05.277Z,11.14
2022-08-07T01:45:10.113Z,11.09
2022-08-07T01:50:06.130Z,11.07
2022-08-07T01:55:05.094Z,11.00
2022-08-07T02:00:13.267Z,10.96
2022-08-07T02:05:06.129Z,10.91
2022-08-07T02:10:04.933Z,10.91
2022-08-07T02:15:06.021Z,10.86
2022-08-07T02:20:09.893Z,10.81
2022-08-07T02:25:07.184Z,10.78
2022-08-07T02:30:07.224Z,10.76
2022-08-07T02:35:06.109Z,10.71
2022-08-07T02:40:30.034Z,10.67
2022-08-07T02:45:07.426Z,10.60
2022-08-07T02:50:05.438Z,10.60
2022-08-07T02:55:04.406Z,10.53
2022-08-07T03:00:05.004Z,10.48
2022-08-07T03:05:06.764Z,10.45
2022-08-07T03:10:04.226Z,10.45
2022-08-07T03:15:07.724Z,10.38
2022-08-07T03:20:04.184Z,10.33
2022-08-07T03:25:04.078Z,10.32
2022-08-07T03:30:05.005Z,10.30
2022-08-07T03:35:18.136Z,10.25
2022-08-07T03:40:16.218Z,10.23
2022-08-07T03:45:04.831Z,10.17
2022-08-07T03:50:03.785Z,10.14
2022-08-07T03:55:06.954Z,10.11
2022-08-07T04:00:04.265Z,10.12
2022-08-07T04:05:03.644Z,10.11
2022-08-07T04:10:06.958Z,10.11
2022-08-07T04:15:04.960Z,10.12
2022-08-07T04:20:05.266Z,10.09
2022-08-07T04:25:03.399Z,10.09
2022-08-07T04:30:05.362Z,10.11
2022-08-07T04:35:05.520Z,10.11
2022-08-07T04:40:03.185Z,10.18
2022-08-07T04:45:08.171Z,10.29
2022-08-07T04:50:04.841Z,10.41
2022-08-07T04:55:15.316Z,10.55
2022-08-07T05:00:09.733Z,10.73
2022-08-07T05:05:51.952Z,10.88
2022-08-07T05:10:04.676Z,11.07
2022-08-07T05:15:04.504Z,11.27
2022-08-07T05:20:05.391Z,11.44
2022-08-07T05:25:08.742Z,11.64
2022-08-07T05:30:03.791Z,11.82
2022-08-07T05:35:02.650Z,12.13
2022-08-07T05:40:16.813Z,12.41
2022-08-07T05:45:04.424Z,12.71
2022-08-07T05:50:03.540Z,13.11
2022-08-07T05:55:10.166Z,13.42
2022-08-07T06:00:03.332Z,13.77
2022-08-07T06:05:03.584Z,14.07
2022-08-07T06:10:05.450Z,14.42
2022-08-07T06:15:05.694Z,14.89
2022-08-07T06:20:04.258Z,15.23
2022-08-07T06:25:03.002Z,15.65
2022-08-07T06:30:02.018Z,16.01
2022-08-07T06:35:01.954Z,16.41
2022-08-07T06:40:15.722Z,16.75
2022-08-07T06:45:02.796Z,17.15
2022-08-07T06:50:03.860Z,17.55
2022-08-07T06:55:34.390Z,17.96
2022-08-07T07:00:12.603Z,18.41
2022-08-07T07:05:02.609Z,18.85
2022-08-07T07:10:01.589Z,19.04
2022-08-07T07:15:03.336Z,19.39
2022-08-07T07:20:01.456Z,19.84
2022-08-07T07:25:14.225Z,20.21
2022-08-07T07:30:10.078Z,20.70
2022-08-07T07:35:03.852Z,21.04
2022-08-07T07:40:01.376Z,21.47
2022-08-07T07:45:01.205Z,21.74
2022-08-07T07:50:33.877Z,22.12
2022-08-07T07:55:03.457Z,22.33
2022-08-07T08:00:01.102Z,22.60
2022-08-07T08:05:01.069Z,22.94
2022-08-07T08:10:05.428Z,23.25
2022-08-07T08:15:00.915Z,23.53
2022-08-07T08:20:22.232Z,23.91
2022-08-07T08:25:18.776Z,23.95
2022-08-07T08:30:02.985Z,24.13
2022-08-07T08:35:00.688Z,24.16
2022-08-07T08:40:02.754Z,24.28
2022-08-07T08:45:00.575Z,24.30
2022-08-07T08:50:04.646Z,24.15
2022-08-07T08:55:01.262Z,24.52
2022-08-07T09:00:01.373Z,25.08
